Time;durP1;ratioP1;P1;durP2;ratioP2;P2;SDS_P1;SDS_P2;PMS_P1;PMS_P2;Temp;Humidity;BMP_temperature;BMP_pressure;BME280_temperature;BME280_humidity;BME280_pressure;Samples;Min_cycle;Max_cycle;Signal;HPM_P1;HPM_P2
2021/03/12 00:00:11;;;;;;;;;;;;;;;28.14;20.18;101580.47;5097559;28;794;-38
2021/03/12 00:02:36;;;;;;;;;;;;;;;28.21;19.88;101584.16;5097225;28;793;-38
2021/03/12 00:05:02;;;;;;;;;;;;;;;28.04;20.29;101571.66;5097328;28;853;-37
2021/03/12 00:07:28;;;;;;;;;;;;;;;28.09;20.00;101572.00;5096920;28;819;-38
2021/03/12 00:09:54;;;;;;;;;;;;;;;28.15;20.22;101575.88;5085100;28;1022;-37
2021/03/12 00:12:19;;;;;;;;;;;;;;;28.13;20.06;101577.91;5076785;28;739;-38
2021/03/12 00:14:44;;;;;;;;;;;;;;;27.61;20.37;101576.16;5076736;28;1971;-38
2021/03/12 00:17:09;;;;;;;;;;;;;;;27.79;20.72;101560.84;5076898;28;823;-37
2021/03/12 00:19:35;;;;;;;;;;;;;;;27.94;20.22;101556.47;5076964;28;767;-37
2021/03/12 00:22:00;;;;;;;;;;;;;;;28.04;20.23;101553.59;5076828;28;827;-38
2021/03/12 00:24:25;;;;;;;;;;;;;;;28.17;20.31;101542.25;5084002;28;1022;-38
2021/03/12 00:26:51;;;;;;;;;;;;;;;28.12;20.04;101552.72;5096762;28;799;-39
2021/03/12 00:29:16;;;;;;;;;;;;;;;28.13;20.43;101553.59;5097207;28;794;-38
2021/03/12 00:31:41;;;;;;;;;;;;;;;28.14;20.27;101549.84;5096527;28;1117;-38
2021/03/12 00:34:07;;;;;;;;;;;;;;;28.14;20.15;101555.25;5091265;28;1095;-38
2021/03/12 00:36:32;;;;;;;;;;;;;;;28.14;20.09;101539.03;5058407;28;2257;-38
2021/03/12 00:38:57;;;;;;;;;;;;;;;28.14;20.22;101545.28;5079957;28;939;-39
2021/03/12 00:41:23;;;;;;;;;;;;;;;28.15;20.31;101541.56;5096628;28;783;-38
2021/03/12 00:43:48;;;;;;;;;;;;;;;28.15;19.99;101529.88;5097100;28;822;-39
2021/03/12 00:46:13;;;;;;;;;;;;;;;28.18;20.13;101521.44;5101071;28;760;-38
2021/03/12 00:48:39;;;;;;;;;;;;;;;28.27;19.94;101515.00;5100728;28;787;-38
2021/03/12 00:51:04;;;;;;;;;;;;;;;28.25;19.96;101498.09;5082716;28;974;-38
2021/03/12 00:53:30;;;;;;;;;;;;;;;28.19;20.23;101496.94;5100681;28;823;-38
2021/03/12 00:55:55;;;;;;;;;;;;;;;28.09;20.10;101498.97;5080265;28;1898;-38
2021/03/12 00:58:21;;;;;;;;;;;;;;;27.80;20.45;101495.78;5080446;28;767;-38
2021/03/12 01:00:46;;;;;;;;;;;;;;;27.40;20.94;101490.16;5080430;28;760;-41
2021/03/12 01:03:11;;;;;;;;;;;;;;;27.14;20.92;101483.03;5080052;28;795;-37
2021/03/12 01:05:37;;;;;;;;;;;;;;;27.52;20.80;101485.28;5080037;28;1514;-38
2021/03/12 01:08:02;;;;;;;;;;;;;;;27.79;20.64;101486.00;5080619;28;786;-38
2021/03/12 01:10:28;;;;;;;;;;;;;;;27.89;20.32;101483.13;5096115;28;971;-37
2021/03/12 01:12:53;;;;;;;;;;;;;;;28.06;20.11;101478.50;5100327;28;807;-38
2021/03/12 01:15:20;;;;;;;;;;;;;;;28.08;20.24;101472.94;5100361;28;1970;-37
2021/03/12 01:17:46;;;;;;;;;;;;;;;28.14;20.12;101474.97;5100062;28;767;-39
2021/03/12 01:20:13;;;;;;;;;;;;;;;28.13;20.12;101469.72;5100424;28;827;-37
2021/03/12 01:22:38;;;;;;;;;;;;;;;28.04;20.14;101466.19;5100204;28;839;-37
2021/03/12 01:25:07;;;;;;;;;;;;;;;28.06;20.01;101462.28;5086634;28;951;-42
2021/03/12 01:27:38;;;;;;;;;;;;;;;28.19;19.97;101461.78;5080109;28;723;-37
2021/03/12 01:30:09;;;;;;;;;;;;;;;28.20;19.74;101468.00;5079546;28;1294;-37
2021/03/12 01:32:34;;;;;;;;;;;;;;;28.18;20.26;101464.63;5079729;28;767;-37
2021/03/12 01:34:59;;;;;;;;;;;;;;;28.14;20.14;101466.00;5092197;28;1971;-38
2021/03/12 01:37:25;;;;;;;;;;;;;;;28.23;20.08;101462.25;5099971;28;763;-37
2021/03/12 01:39:50;;;;;;;;;;;;;;;28.17;19.93;101460.25;5088760;28;1009;-37
2021/03/12 01:42:15;;;;;;;;;;;;;;;28.30;19.60;101452.44;5079616;28;846;-37
2021/03/12 01:44:41;;;;;;;;;;;;;;;28.23;19.87;101459.53;5079336;28;759;-37
2021/03/12 01:47:06;;;;;;;;;;;;;;;28.00;19.91;101452.16;5079817;28;747;-37
2021/03/12 01:49:31;;;;;;;;;;;;;;;27.55;20.51;101441.72;5079475;28;812;-37
2021/03/12 01:51:56;;;;;;;;;;;;;;;27.84;20.45;101436.81;5079522;28;779;-37
2021/03/12 01:54:22;;;;;;;;;;;;;;;28.11;20.21;101424.75;5086229;28;1149;-37
2021/03/12 01:56:47;;;;;;;;;;;;;;;28.27;19.98;101438.41;5099285;28;1893;-37
2021/03/12 01:59:12;;;;;;;;;;;;;;;28.22;19.85;101439.78;5099378;28;800;-37
2021/03/12 02:01:38;;;;;;;;;;;;;;;28.24;19.91;101431.50;5099496;28;736;-39
2021/03/12 02:04:03;;;;;;;;;;;;;;;28.20;20.11;101424.72;5099278;28;817;-37
2021/03/12 02:06:28;;;;;;;;;;;;;;;28.19;20.11;101432.00;5099412;28;743;-37
2021/03/12 02:08:53;;;;;;;;;;;;;;;28.20;19.73;101435.53;5096330;28;938;-37
2021/03/12 02:11:19;;;;;;;;;;;;;;;28.27;19.80;101438.41;5079020;28;803;-37
2021/03/12 02:13:44;;;;;;;;;;;;;;;28.32;20.02;101433.31;5060861;28;847;-37
2021/03/12 02:16:11;;;;;;;;;;;;;;;28.34;19.78;101431.31;5079139;28;1901;-38
2021/03/12 02:18:55;;;;;;;;;;;;;;;28.36;19.95;101432.00;5079184;28;763;-37
2021/03/12 02:21:31;;;;;;;;;;;;;;;28.44;19.68;101426.53;5078948;28;814;-37
2021/03/12 02:24:06;;;;;;;;;;;;;;;28.31;19.68;101421.63;5064194;28;1007;-38
2021/03/12 02:26:37;;;;;;;;;;;;;;;28.27;19.94;101420.31;5098890;28;748;-37
2021/03/12 02:29:04;;;;;;;;;;;;;;;28.40;19.63;101425.19;5098976;28;866;-39
2021/03/12 02:31:30;;;;;;;;;;;;;;;28.34;19.65;101407.78;5080455;28;1107;-37
2021/03/12 02:33:56;;;;;;;;;;;;;;;27.88;20.33;101403.00;5076948;28;1146;-37
2021/03/12 02:36:22;;;;;;;;;;;;;;;27.67;20.48;101406.22;5078485;28;1917;-39
2021/03/12 02:38:47;;;;;;;;;;;;;;;27.90;20.45;101408.22;5078290;28;987;-37
2021/03/12 02:41:13;;;;;;;;;;;;;;;27.63;20.44;101400.31;5078362;28;756;-41
2021/03/12 02:43:38;;;;;;;;;;;;;;;27.42;20.84;101390.88;5078661;28;795;-37
2021/03/12 02:46:03;;;;;;;;;;;;;;;27.87;20.31;101396.78;5060425;28;843;-38
2021/03/12 02:48:29;;;;;;;;;;;;;;;28.01;20.34;101383.53;5078555;28;744;-37
2021/03/12 02:50:54;;;;;;;;;;;;;;;28.12;20.01;101395.84;5078388;28;854;-37
2021/03/12 02:53:19;;;;;;;;;;;;;;;28.31;19.83;101410.00;5078056;28;803;-38
2021/03/12 02:55:45;;;;;;;;;;;;;;;28.48;19.86;101413.47;5096769;28;1906;-38
2021/03/12 02:58:10;;;;;;;;;;;;;;;28.45;19.92;101413.84;5080311;28;811;-39
2021/03/12 03:00:36;;;;;;;;;;;;;;;28.32;19.90;101398.13;5098533;28;809;-41
2021/03/12 03:03:01;;;;;;;;;;;;;;;28.28;20.20;101394.09;5080127;28;818;-37
2021/03/12 03:05:27;;;;;;;;;;;;;;;28.36;19.94;101400.34;5097918;28;895;-37
2021/03/12 03:07:52;;;;;;;;;;;;;;;28.32;19.83;101400.84;5079108;28;784;-37
2021/03/12 03:10:17;;;;;;;;;;;;;;;28.30;19.93;101406.44;5065103;28;943;-37
2021/03/12 03:12:43;;;;;;;;;;;;;;;28.33;19.84;101399.84;5059907;28;743;-37
2021/03/12 03:15:09;;;;;;;;;;;;;;;28.47;19.85;101390.16;5059813;28;1905;-37
2021/03/12 03:17:37;;;;;;;;;;;;;;;28.44;19.74;101380.53;5077702;28;827;-37
2021/03/12 03:20:04;;;;;;;;;;;;;;;28.35;20.11;101387.00;5077646;28;867;-37
2021/03/12 03:22:30;;;;;;;;;;;;;;;28.41;19.87;101394.41;5077218;28;853;-37
2021/03/12 03:24:55;;;;;;;;;;;;;;;28.08;20.17;101397.19;5089118;28;1010;-37
2021/03/12 03:27:20;;;;;;;;;;;;;;;27.77;20.54;101388.00;5097867;28;802;-37
2021/03/12 03:29:46;;;;;;;;;;;;;;;28.14;20.32;101371.31;5097230;28;1118;-37
2021/03/12 03:32:11;;;;;;;;;;;;;;;28.23;20.01;101354.03;5097821;28;739;-40
2021/03/12 03:34:37;;;;;;;;;;;;;;;28.28;20.17;101351.66;5087823;28;1111;-39
2021/03/12 03:37:02;;;;;;;;;;;;;;;28.18;20.20;101351.00;5077141;28;1910;-37
2021/03/12 03:39:28;;;;;;;;;;;;;;;28.32;19.77;101354.84;5084810;28;947;-37
2021/03/12 03:41:53;;;;;;;;;;;;;;;28.43;19.91;101362.59;5097538;28;743;-37
2021/03/12 03:44:25;;;;;;;;;;;;;;;28.41;19.97;101344.88;5097427;28;775;-37
2021/03/12 03:46:50;;;;;;;;;;;;;;;28.37;20.13;101344.38;5079484;28;759;-39
2021/03/12 03:49:17;;;;;;;;;;;;;;;28.42;20.03;101344.69;5079091;28;823;-37
2021/03/12 03:51:42;;;;;;;;;;;;;;;28.53;19.95;101348.84;5079002;28;847;-37
2021/03/12 03:54:07;;;;;;;;;;;;;;;28.47;19.82;101342.28;5092452;28;966;-38
2021/03/12 03:56:34;;;;;;;;;;;;;;;28.43;20.11;101345.50;5076955;28;1987;-37
2021/03/12 03:58:59;;;;;;;;;;;;;;;28.41;19.76;101353.81;5077044;28;831;-37
2021/03/12 04:01:25;;;;;;;;;;;;;;;28.40;19.97;101348.56;5077102;28;834;-37
2021/03/12 04:03:51;;;;;;;;;;;;;;;28.40;19.84;101349.44;5058975;28;807;-37
2021/03/12 04:06:16;;;;;;;;;;;;;;;28.54;19.68;101357.81;5059178;28;811;-40
2021/03/12 04:08:41;;;;;;;;;;;;;;;28.07;20.17;101360.38;5078146;28;943;-38
2021/03/12 04:11:07;;;;;;;;;;;;;;;27.77;20.42;101357.41;5078879;28;755;-37
2021/03/12 04:13:32;;;;;;;;;;;;;;;28.24;20.14;101358.44;5079087;28;732;-37
2021/03/12 04:15:57;;;;;;;;;;;;;;;28.28;20.17;101353.53;5078383;28;1977;-45
2021/03/12 04:18:22;;;;;;;;;;;;;;;27.98;20.81;101362.25;5078848;28;807;-41
2021/03/12 04:20:48;;;;;;;;;;;;;;;27.71;20.91;101340.88;5097165;28;819;-39
2021/03/12 04:23:13;;;;;;;;;;;;;;;27.54;21.09;101342.75;5078966;28;788;-40
2021/03/12 04:25:38;;;;;;;;;;;;;;;27.92;20.69;101350.28;5061325;28;943;-37
2021/03/12 04:28:04;;;;;;;;;;;;;;;27.74;21.13;101348.63;5076729;28;783;-36
2021/03/12 04:30:29;;;;;;;;;;;;;;;28.53;20.13;101342.59;5076338;28;1273;-37
2021/03/12 04:32:55;;;;;;;;;;;;;;;28.83;19.60;101334.59;5076145;28;1040;-38
2021/03/12 04:35:20;;;;;;;;;;;;;;;28.85;19.74;101338.84;5074096;28;1913;-41
2021/03/12 04:37:46;;;;;;;;;;;;;;;28.86;19.71;101336.97;5096912;28;755;-40
2021/03/12 04:40:11;;;;;;;;;;;;;;;28.83;19.62;101340.88;5082391;28;982;-34
2021/03/12 04:42:36;;;;;;;;;;;;;;;27.94;19.57;101334.72;5058630;28;793;-42
2021/03/12 04:45:05;;;;;;;;;;;;;;;25.52;13.17;101315.38;5058494;28;812;-37
2021/03/12 04:47:31;;;;;;;;;;;;;;;24.36;14.21;101330.44;5076580;28;776;-38
2021/03/12 04:49:56;;;;;;;;;;;;;;;23.62;15.34;101313.16;5076995;28;911;-41
2021/03/12 04:52:21;;;;;;;;;;;;;;;22.85;15.31;101292.44;5076422;28;768;-37
2021/03/12 04:54:47;;;;;;;;;;;;;;;22.55;16.96;101304.94;5067676;28;1236;-44
2021/03/12 04:57:15;;;;;;;;;;;;;;;22.66;16.85;101295.94;5096076;28;1901;-47
2021/03/12 04:59:41;;;;;;;;;;;;;;;23.38;16.63;101295.66;5096215;28;812;-34
2021/03/12 05:02:06;;;;;;;;;;;;;;;23.88;16.29;101299.06;5096619;28;763;-31
2021/03/12 05:04:31;;;;;;;;;;;;;;;24.87;15.09;101306.59;5096476;28;804;-32
2021/03/12 05:06:57;;;;;;;;;;;;;;;24.49;14.57;101305.88;5078828;28;771;-42
2021/03/12 05:09:22;;;;;;;;;;;;;;;23.92;14.60;101318.44;5089281;28;935;-39
2021/03/12 05:11:47;;;;;;;;;;;;;;;23.16;15.53;101319.13;5076379;28;747;-33
2021/03/12 05:14:16;;;;;;;;;;;;;;;22.92;15.67;101315.03;5076507;28;748;-34
2021/03/12 05:16:41;;;;;;;;;;;;;;;23.23;15.24;101309.53;5091728;28;1905;-33
2021/03/12 05:19:07;;;;;;;;;;;;;;;23.37;15.90;101304.72;5076313;28;806;-43
2021/03/12 05:21:32;;;;;;;;;;;;;;;22.92;16.46;101308.84;5076199;28;831;-40
2021/03/12 05:23:58;;;;;;;;;;;;;;;22.94;17.51;101302.31;5075139;28;1159;-38
2021/03/12 05:26:23;;;;;;;;;;;;;;;23.50;16.52;101292.81;5094222;28;1264;-32
2021/03/12 05:28:49;;;;;;;;;;;;;;;23.82;16.41;101291.59;5096457;28;740;-31
2021/03/12 05:31:14;;;;;;;;;;;;;;;24.04;16.01;101297.59;5098399;28;1090;-38
2021/03/12 05:33:39;;;;;;;;;;;;;;;23.83;15.99;101288.78;5098283;28;1110;-37
2021/03/12 05:36:05;;;;;;;;;;;;;;;24.37;15.72;101295.34;5079561;28;1976;-37
2021/03/12 05:38:30;;;;;;;;;;;;;;;24.10;15.29;101302.38;5079506;28;760;-36
2021/03/12 05:40:55;;;;;;;;;;;;;;;23.78;15.49;101300.94;5099399;28;987;-29
2021/03/12 05:43:21;;;;;;;;;;;;;;;24.06;15.79;101303.66;5081391;28;919;-31
2021/03/12 05:45:46;;;;;;;;;;;;;;;24.26;15.82;101314.31;5081778;28;736;-34
2021/03/12 05:48:13;;;;;;;;;;;;;;;24.49;15.31;101314.75;5099870;28;839;-33
2021/03/12 05:50:39;;;;;;;;;;;;;;;24.47;15.72;101314.09;5081648;28;1062;-37
2021/03/12 05:53:04;;;;;;;;;;;;;;;24.85;15.21;101313.09;5099272;28;981;-40
2021/03/12 05:55:30;;;;;;;;;;;;;;;25.07;14.82;101309.97;5082849;28;1994;-38
2021/03/12 05:57:55;;;;;;;;;;;;;;;24.39;15.23;101311.31;5079081;28;851;-42
2021/03/12 06:00:20;;;;;;;;;;;;;;;24.14;15.24;101317.19;5061188;28;851;-37
2021/03/12 06:02:46;;;;;;;;;;;;;;;24.33;15.41;101326.19;5079500;28;831;-39
2021/03/12 06:05:11;;;;;;;;;;;;;;;24.15;15.51;101326.09;5078947;28;744;-32
2021/03/12 06:07:37;;;;;;;;;;;;;;;23.88;15.44;101315.19;5079274;28;799;-31
2021/03/12 06:10:05;;;;;;;;;;;;;;;24.15;15.67;101308.16;5091464;28;1010;-33
2021/03/12 06:12:33;;;;;;;;;;;;;;;24.43;15.50;101313.53;5079709;28;997;-36
2021/03/12 06:15:00;;;;;;;;;;;;;;;24.49;15.62;101312.06;5099258;28;1901;-34
2021/03/12 06:17:35;;;;;;;;;;;;;;;24.55;15.08;101303.41;5099196;28;815;-31
2021/03/12 06:20:02;;;;;;;;;;;;;;;24.96;15.33;101304.81;5098795;28;835;-35
2021/03/12 06:22:28;;;;;;;;;;;;;;;25.13;15.02;101310.34;5098695;28;867;-33
2021/03/12 06:24:53;;;;;;;;;;;;;;;25.29;14.90;101306.97;5080120;28;971;-34
2021/03/12 06:27:28;;;;;;;;;;;;;;;25.38;14.95;101308.69;5081019;28;752;-33
2021/03/12 06:29:58;;;;;;;;;;;;;;;25.52;14.74;101306.44;5098795;28;1329;-35
2021/03/12 06:32:27;;;;;;;;;;;;;;;25.39;14.65;101304.97;5098661;28;816;-38
2021/03/12 06:34:58;;;;;;;;;;;;;;;25.50;14.79;101306.59;5069352;28;1111;-31
2021/03/12 06:37:29;;;;;;;;;;;;;;;24.85;14.65;101313.09;5060748;28;804;-38
2021/03/12 06:39:55;;;;;;;;;;;;;;;24.70;14.97;101314.50;5089312;28;963;-37
2021/03/12 06:42:20;;;;;;;;;;;;;;;24.42;15.73;101324.44;5097495;28;827;-38
2021/03/12 06:44:45;;;;;;;;;;;;;;;24.46;15.53;101326.69;5098795;28;803;-36
2021/03/12 06:47:10;;;;;;;;;;;;;;;24.38;15.38;101326.59;5098213;28;851;-35
2021/03/12 06:49:52;;;;;;;;;;;;;;;24.70;15.72;101329.78;5098536;28;805;-31
2021/03/12 06:52:17;;;;;;;;;;;;;;;25.23;15.00;101335.34;5098452;28;892;-41
2021/03/12 06:54:52;;;;;;;;;;;;;;;24.54;14.80;101333.97;5088063;28;974;-33
2021/03/12 06:57:19;;;;;;;;;;;;;;;24.15;15.18;101344.94;5078078;28;1901;-33
2021/03/12 06:59:44;;;;;;;;;;;;;;;24.19;15.32;101343.69;5078138;28;756;-32
2021/03/12 07:02:09;;;;;;;;;;;;;;;23.96;15.86;101333.25;5077692;28;835;-29
2021/03/12 07:04:35;;;;;;;;;;;;;;;23.68;16.87;101339.44;5078001;28;787;-36
2021/03/12 07:07:00;;;;;;;;;;;;;;;24.17;16.70;101327.66;5060230;28;962;-39
2021/03/12 07:09:26;;;;;;;;;;;;;;;24.37;16.46;101324.06;5085162;28;999;-38
2021/03/12 07:11:55;;;;;;;;;;;;;;;24.51;16.42;101326.22;5097956;28;553;-40
2021/03/12 07:14:21;;;;;;;;;;;;;;;24.76;16.36;101318.41;5097775;28;791;-40
2021/03/12 07:16:46;;;;;;;;;;;;;;;25.15;16.09;101316.44;5097426;28;1968;-38
2021/03/12 07:19:11;;;;;;;;;;;;;;;24.70;15.93;101327.09;5098089;28;795;-33
2021/03/12 07:21:37;;;;;;;;;;;;;;;24.24;16.46;101325.22;5079726;28;822;-35
2021/03/12 07:24:03;;;;;;;;;;;;;;;24.28;16.47;101315.03;5075034;28;963;-39
2021/03/12 07:26:32;;;;;;;;;;;;;;;24.60;15.66;101320.94;5077532;28;831;-33
2021/03/12 07:28:59;;;;;;;;;;;;;;;24.70;15.39;101311.81;5059710;28;915;-40
2021/03/12 07:31:24;;;;;;;;;;;;;;;24.56;15.28;101312.31;5077137;28;1075;-39
2021/03/12 07:33:51;;;;;;;;;;;;;;;24.72;14.54;101308.97;5062426;28;1162;-37
2021/03/12 07:36:19;;;;;;;;;;;;;;;24.17;14.90;101324.97;5079043;28;1979;-36
2021/03/12 07:38:45;;;;;;;;;;;;;;;23.27;15.13;101320.84;5095591;28;990;-40
2021/03/12 07:41:12;;;;;;;;;;;;;;;23.62;15.30;101339.16;5077506;28;803;-33
2021/03/12 07:43:40;;;;;;;;;;;;;;;22.25;15.08;101343.22;5077191;28;827;-38
2021/03/12 07:46:06;;;;;;;;;;;;;;;22.53;15.47;101334.56;5077086;28;843;-38
2021/03/12 07:48:31;;;;;;;;;;;;;;;23.03;15.32;101322.09;5076929;28;796;-40
2021/03/12 07:51:23;;;;;;;;;;;;;;;23.44;15.23;101330.00;5077077;28;568;-35
2021/03/12 07:53:52;;;;;;;;;;;;;;;24.02;14.64;101330.00;5075312;28;1618;-34
2021/03/12 07:56:18;;;;;;;;;;;;;;;23.20;14.50;101327.75;5097386;28;1909;-35
2021/03/12 07:58:54;;;;;;;;;;;;;;;22.70;14.66;101321.50;5096822;28;816;-34
2021/03/12 08:01:20;;;;;;;;;;;;;;;17.34;19.45;101313.81;5096986;28;850;-36
2021/03/12 08:03:45;;;;;;;;;;;;;;;21.36;16.25;101317.78;5097104;28;839;-36
2021/03/12 08:06:16;;;;;;;;;;;;;;;22.45;15.66;101312.97;5097108;28;783;-37
2021/03/12 08:08:41;;;;;;;;;;;;;;;23.07;15.70;101312.75;5095723;28;1029;-39
2021/03/12 08:11:16;;;;;;;;;;;;;;;23.66;15.13;101309.19;5077028;28;819;-34
2021/03/12 08:13:41;;;;;;;;;;;;;;;24.20;15.38;101299.66;5076619;28;855;-37
2021/03/12 08:16:07;;;;;;;;;;;;;;;24.53;15.38;101305.41;5076811;28;1963;-36
2021/03/12 08:18:32;;;;;;;;;;;;;;;24.73;15.96;101301.72;5076908;28;748;-36
2021/03/12 08:20:57;;;;;;;;;;;;;;;25.03;16.00;101316.66;5076972;28;775;-35
2021/03/12 08:23:35;;;;;;;;;;;;;;;25.46;16.06;101310.59;5076688;28;886;-34
2021/03/12 08:26:00;;;;;;;;;;;;;;;24.90;16.84;101303.63;5077111;28;748;-33
2021/03/12 08:28:27;;;;;;;;;;;;;;;24.52;17.29;101310.94;5076209;28;831;-32
2021/03/12 08:30:53;;;;;;;;;;;;;;;24.89;17.23;101317.19;5076366;28;1064;-36
2021/03/12 08:33:18;;;;;;;;;;;;;;;25.00;17.77;101325.06;5076642;28;792;-35
2021/03/12 08:35:43;;;;;;;;;;;;;;;25.02;18.01;101317.69;5113850;28;1922;-32
2021/03/12 08:38:28;;;;;;;;;;;;;;;24.06;18.83;101320.63;5117323;28;1054;-35
2021/03/12 08:40:53;;;;;;;;;;;;;;;23.78;18.77;101323.28;5077482;28;945;-36
2021/03/12 08:43:20;;;;;;;;;;;;;;;24.91;18.05;101309.81;5076501;28;828;-38
2021/03/12 08:45:50;;;;;;;;;;;;;;;25.38;17.76;101307.84;5076574;28;783;-41
2021/03/12 08:48:18;;;;;;;;;;;;;;;25.43;17.95;101316.28;5076521;28;771;-37
2021/03/12 08:51:00;;;;;;;;;;;;;;;25.68;17.66;101311.94;5076544;28;767;-40
2021/03/12 08:53:26;;;;;;;;;;;;;;;22.84;15.41;101312.19;5076265;28;784;-35
2021/03/12 08:55:52;;;;;;;;;;;;;;;23.85;14.41;101308.28;5095243;28;1965;-36
2021/03/12 08:58:17;;;;;;;;;;;;;;;22.44;15.29;101292.53;5096711;28;798;-34
2021/03/12 09:00:43;;;;;;;;;;;;;;;23.36;15.12;101293.13;5097061;28;801;-36
2021/03/12 09:03:13;;;;;;;;;;;;;;;23.30;14.70;101285.66;5096291;28;818;-38
2021/03/12 09:05:38;;;;;;;;;;;;;;;22.87;14.94;101280.56;5098303;28;791;-40
2021/03/12 09:08:03;;;;;;;;;;;;;;;23.23;14.55;101282.69;5100002;28;776;-39
2021/03/12 09:10:29;;;;;;;;;;;;;;;22.67;14.55;101268.16;5083919;28;998;-33
2021/03/12 09:12:54;;;;;;;;;;;;;;;22.90;14.96;101276.78;5080189;28;823;-41
2021/03/12 09:15:23;;;;;;;;;;;;;;;23.15;14.77;101258.41;5079981;28;1968;-38
2021/03/12 09:17:48;;;;;;;;;;;;;;;23.42;14.45;101253.28;5062341;28;815;-39
2021/03/12 09:20:14;;;;;;;;;;;;;;;23.28;14.39;101247.34;5080096;28;845;-38
2021/03/12 09:22:39;;;;;;;;;;;;;;;22.45;14.92;101243.28;5079436;28;838;-37
2021/03/12 09:25:05;;;;;;;;;;;;;;;22.39;14.68;101242.84;5079610;28;939;-39
2021/03/12 09:27:30;;;;;;;;;;;;;;;22.21;14.48;101231.94;5079917;28;803;-39
2021/03/12 09:29:55;;;;;;;;;;;;;;;21.56;15.09;101208.16;5079640;28;1295;-39
2021/03/12 09:32:23;;;;;;;;;;;;;;;21.99;15.04;101200.84;5079435;28;809;-39
2021/03/12 09:34:49;;;;;;;;;;;;;;;22.24;14.97;101204.88;5090913;28;1155;-39
2021/03/12 09:37:14;;;;;;;;;;;;;;;22.06;15.15;101188.63;5099808;28;1917;-39
2021/03/12 09:39:39;;;;;;;;;;;;;;;22.44;15.22;101177.25;5090450;28;1010;-39
2021/03/12 09:42:08;;;;;;;;;;;;;;;22.68;15.16;101179.53;5079339;28;799;-41
2021/03/12 09:44:33;;;;;;;;;;;;;;;22.03;15.46;101162.13;5079471;28;855;-41
2021/03/12 09:46:59;;;;;;;;;;;;;;;20.87;15.95;101169.31;5079663;28;794;-40
2021/03/12 09:49:29;;;;;;;;;;;;;;;21.15;15.83;101164.28;5079713;28;755;-41
2021/03/12 09:51:55;;;;;;;;;;;;;;;21.37;15.32;101166.97;5078832;28;775;-38
2021/03/12 09:54:21;;;;;;;;;;;;;;;21.53;15.26;101158.44;5085785;28;962;-41
2021/03/12 09:56:47;;;;;;;;;;;;;;;21.67;15.33;101156.34;5100092;28;1905;-41
2021/03/12 09:59:12;;;;;;;;;;;;;;;21.98;15.05;101148.28;5081397;28;815;-41
2021/03/12 10:01:38;;;;;;;;;;;;;;;21.78;15.34;101142.88;5081227;28;781;-41
2021/03/12 10:04:21;;;;;;;;;;;;;;;20.35;16.63;101138.00;5099442;28;783;-42
2021/03/12 10:06:59;;;;;;;;;;;;;;;21.16;16.05;101122.34;5099430;28;789;-40
2021/03/12 10:09:25;;;;;;;;;;;;;;;20.53;16.57;101124.06;5091851;28;990;-36
2021/03/12 10:11:52;;;;;;;;;;;;;;;22.39;16.09;101116.00;5078635;28;861;-41
2021/03/12 10:14:29;;;;;;;;;;;;;;;23.72;15.13;101125.09;5078940;28;740;-30
2021/03/12 10:17:04;;;;;;;;;;;;;;;24.45;14.82;101117.94;5078870;28;1906;-42
2021/03/12 10:19:39;;;;;;;;;;;;;;;24.94;14.87;101119.28;5060729;28;1005;-41
2021/03/12 10:22:04;;;;;;;;;;;;;;;24.78;15.29;101114.63;5078892;28;752;-41
2021/03/12 10:24:29;;;;;;;;;;;;;;;25.03;15.21;101106.72;5060559;28;1511;-39
2021/03/12 10:26:54;;;;;;;;;;;;;;;25.48;15.43;101117.34;5060724;28;1504;-42
2021/03/12 10:29:20;;;;;;;;;;;;;;;25.15;15.65;101125.28;5078882;28;823;-38
2021/03/12 10:31:46;;;;;;;;;;;;;;;25.17;15.65;101126.81;5078197;28;1584;-34
2021/03/12 10:34:11;;;;;;;;;;;;;;;25.53;15.95;101119.53;5084253;28;1146;-38
2021/03/12 10:36:36;;;;;;;;;;;;;;;25.91;15.70;101122.72;5098831;28;1917;-41
2021/03/12 10:39:01;;;;;;;;;;;;;;;26.19;15.82;101118.88;5096383;28;903;-35
2021/03/12 10:41:27;;;;;;;;;;;;;;;26.33;15.80;101106.59;5098691;28;779;-35
2021/03/12 10:43:58;;;;;;;;;;;;;;;26.22;15.88;101094.28;5098273;28;832;-39
2021/03/12 10:46:24;;;;;;;;;;;;;;;25.96;16.13;101084.47;5098835;28;771;-41
2021/03/12 10:48:50;;;;;;;;;;;;;;;26.31;16.16;101083.50;5098720;28;779;-34
2021/03/12 10:51:16;;;;;;;;;;;;;;;26.58;15.94;101085.00;5098727;28;803;-38
2021/03/12 10:53:44;;;;;;;;;;;;;;;26.81;15.87;101080.75;5096916;28;974;-38
2021/03/12 10:56:10;;;;;;;;;;;;;;;26.96;15.65;101080.88;5078241;28;1909;-48
2021/03/12 10:58:36;;;;;;;;;;;;;;;26.44;16.17;101073.06;5078261;28;831;-36
2021/03/12 11:01:07;;;;;;;;;;;;;;;26.51;16.31;101060.56;5077910;28;812;-36
2021/03/12 11:03:33;;;;;;;;;;;;;;;26.75;16.54;101056.13;5077788;28;780;-39
2021/03/12 11:05:58;;;;;;;;;;;;;;;26.92;16.26;101047.13;5078075;28;744;-47
2021/03/12 11:08:25;;;;;;;;;;;;;;;26.58;16.65;101049.91;5077763;28;822;-38
2021/03/12 11:10:50;;;;;;;;;;;;;;;26.93;16.46;101038.84;5097009;28;947;-39
2021/03/12 11:13:16;;;;;;;;;;;;;;;27.07;16.55;101040.00;5098043;28;817;-36
2021/03/12 11:15:41;;;;;;;;;;;;;;;27.10;16.44;101034.25;5097898;28;1906;-33
2021/03/12 11:18:06;;;;;;;;;;;;;;;27.26;16.36;101043.28;5098214;28;839;-34
2021/03/12 11:20:32;;;;;;;;;;;;;;;27.43;16.13;101043.19;5097392;28;774;-34
2021/03/12 11:22:57;;;;;;;;;;;;;;;26.28;17.34;101045.06;5097563;28;503;-34
2021/03/12 11:25:22;;;;;;;;;;;;;;;26.02;17.84;101046.09;5082635;28;946;-38
2021/03/12 11:27:48;;;;;;;;;;;;;;;26.72;17.11;101045.69;5076932;28;835;-32
2021/03/12 11:30:15;;;;;;;;;;;;;;;26.83;17.39;101047.16;5055888;28;1318;-34
2021/03/12 11:32:40;;;;;;;;;;;;;;;26.82;17.45;101044.63;5057601;28;783;-30
2021/03/12 11:35:06;;;;;;;;;;;;;;;26.14;17.61;101037.66;5070164;28;1091;-31
2021/03/12 11:37:31;;;;;;;;;;;;;;;25.47;18.61;101031.31;5075630;28;895;-32
2021/03/12 11:39:57;;;;;;;;;;;;;;;26.02;18.43;101040.69;5077119;28;1124;-34
2021/03/12 11:42:22;;;;;;;;;;;;;;;26.58;18.03;101035.56;5077099;28;755;-34
2021/03/12 11:44:48;;;;;;;;;;;;;;;26.64;17.72;101033.03;5077277;28;796;-41
2021/03/12 11:47:13;;;;;;;;;;;;;;;26.75;17.63;101023.75;5076855;28;792;-32
2021/03/12 11:49:38;;;;;;;;;;;;;;;26.03;18.40;101025.34;5077115;28;815;-33
2021/03/12 11:52:06;;;;;;;;;;;;;;;25.82;18.70;101013.22;5076758;28;835;-46
2021/03/12 11:54:32;;;;;;;;;;;;;;;26.38;18.29;101007.13;5068799;28;1032;-42
2021/03/12 11:56:57;;;;;;;;;;;;;;;26.39;18.47;100995.31;5057031;28;1957;-41
2021/03/12 11:59:22;;;;;;;;;;;;;;;24.72;15.11;100990.66;5057140;28;776;-35
2021/03/12 12:01:48;;;;;;;;;;;;;;;23.60;15.31;100992.88;5056605;28;843;-43
2021/03/12 12:04:13;;;;;;;;;;;;;;;22.83;15.54;100978.75;5056964;28;828;-30
2021/03/12 12:06:38;;;;;;;;;;;;;;;22.58;15.62;100973.03;5056754;28;1478;-33
2021/03/12 12:09:04;;;;;;;;;;;;;;;22.20;15.44;100961.44;5060788;28;1011;-33
2021/03/12 12:11:30;;;;;;;;;;;;;;;21.66;16.02;100965.41;5076553;28;843;-35
2021/03/12 12:13:55;;;;;;;;;;;;;;;21.39;16.16;100977.66;5077188;28;755;-31
2021/03/12 12:16:21;;;;;;;;;;;;;;;24.57;15.10;100985.88;5076809;28;1901;-32
2021/03/12 12:18:46;;;;;;;;;;;;;;;25.53;14.86;100976.78;5077190;28;792;-32
2021/03/12 12:21:12;;;;;;;;;;;;;;;25.94;15.23;100970.63;5076524;28;855;-43
2021/03/12 12:23:37;;;;;;;;;;;;;;;26.34;15.22;100972.59;5076281;28;994;-35
2021/03/12 12:26:02;;;;;;;;;;;;;;;26.72;14.98;100955.78;5076446;28;859;-36
2021/03/12 12:28:28;;;;;;;;;;;;;;;27.16;14.77;100959.78;5076480;28;859;-34
2021/03/12 12:30:54;;;;;;;;;;;;;;;27.29;14.76;100951.13;5088209;28;1283;-47
2021/03/12 12:33:19;;;;;;;;;;;;;;;27.63;14.64;100948.97;5096562;28;855;-33
2021/03/12 12:35:44;;;;;;;;;;;;;;;27.82;15.02;100953.09;5077973;28;1909;-35
2021/03/12 12:38:10;;;;;;;;;;;;;;;28.08;14.83;100953.66;5076453;28;792;-35
2021/03/12 12:40:37;;;;;;;;;;;;;;;28.43;14.54;100961.28;5077971;28;943;-31
2021/03/12 12:43:03;;;;;;;;;;;;;;;28.59;14.57;100957.56;5080612;28;815;-33
2021/03/12 12:45:29;;;;;;;;;;;;;;;28.67;14.48;100946.63;5080580;28;794;-33
2021/03/12 12:47:55;;;;;;;;;;;;;;;28.90;14.26;100947.50;5080789;28;764;-33
2021/03/12 12:50:20;;;;;;;;;;;;;;;29.01;14.60;100943.50;5080587;28;820;-36